sensor_id;sensor_type;location;lat;lon;timestamp;pressure;altitude;pressure_sealevel;temperature;humidity
21664;BME280;10993;52.510;13.456;2023-08-06T00:04:12;57148.00;;;-146.93;93.66
21664;BME280;10993;52.510;13.456;2023-08-06T00:09:13;57289.75;;;-146.93;93.57
21664;BME280;10993;52.510;13.456;2023-08-06T00:14:13;57257.34;;;-146.93;93.61
21664;BME280;10993;52.510;13.456;2023-08-06T00:19:16;57305.97;;;-146.93;93.89
21664;BME280;10993;52.510;13.456;2023-08-06T00:24:17;57312.03;;;-146.93;94.01
21664;BME280;10993;52.510;13.456;2023-08-06T00:29:17;57273.56;;;-146.93;94.29
21664;BME280;10993;52.510;13.456;2023-08-06T00:34:19;57261.41;;;-146.93;93.75
21664;BME280;10993;52.510;13.456;2023-08-06T00:39:19;57283.69;;;-146.93;93.86
21664;BME280;10993;52.510;13.456;2023-08-06T00:44:19;57180.41;;;-146.93;94.45
21664;BME280;10993;52.510;13.456;2023-08-06T00:49:21;57332.28;;;-146.93;95.11
21664;BME280;10993;52.510;13.456;2023-08-06T00:54:22;57328.25;;;-146.93;95.02
21664;BME280;10993;52.510;13.456;2023-08-06T00:59:23;57370.75;;;-146.93;95.87
21664;BME280;10993;52.510;13.456;2023-08-06T01:04:25;57397.09;;;-146.93;96.16
21664;BME280;10993;52.510;13.456;2023-08-06T01:09:31;57425.44;;;-146.93;96.48
21664;BME280;10993;52.510;13.456;2023-08-06T01:14:38;57449.75;;;-146.93;96.90
21664;BME280;10993;52.510;13.456;2023-08-06T01:19:45;57480.13;;;-146.93;97.26
21664;BME280;10993;52.510;13.456;2023-08-06T01:24:50;57465.94;;;-146.93;97.31
21664;BME280;10993;52.510;13.456;2023-08-06T01:29:57;57429.50;;;-146.93;97.08
21664;BME280;10993;52.510;13.456;2023-08-06T01:35:00;57646.19;;;-146.93;98.55
21664;BME280;10993;52.510;13.456;2023-08-06T01:40:05;57682.66;;;-146.93;98.95
21664;BME280;10993;52.510;13.456;2023-08-06T01:45:07;57816.34;;;-146.93;99.48
21664;BME280;10993;52.510;13.456;2023-08-06T01:50:08;57939.88;;;-146.93;100.00
21664;BME280;10993;52.510;13.456;2023-08-06T01:55:10;58359.19;;;-146.93;100.00
21664;BME280;10993;52.510;13.456;2023-08-06T02:00:11;58944.69;;;-146.93;100.00
21664;BME280;10993;52.510;13.456;2023-08-06T02:05:12;59418.84;;;-146.93;100.00
21664;BME280;10993;52.510;13.456;2023-08-06T02:10:13;60517.31;;;-146.93;100.00
21664;BME280;10993;52.510;13.456;2023-08-06T02:15:14;60782.88;;;-146.93;100.00
21664;BME280;10993;52.510;13.456;2023-08-06T02:20:14;60693.69;;;-146.93;100.00
21664;BME280;10993;52.510;13.456;2023-08-06T02:25:16;62173.81;;;-146.93;100.00
21664;BME280;10993;52.510;13.456;2023-08-06T02:30:16;62267.13;;;-146.93;100.00
21664;BME280;10993;52.510;13.456;2023-08-06T02:35:17;62782.28;;;-146.93;100.00
21664;BME280;10993;52.510;13.456;2023-08-06T02:40:18;62224.53;;;-146.93;100.00
21664;BME280;10993;52.510;13.456;2023-08-06T02:45:19;62177.88;;;-146.93;100.00
21664;BME280;10993;52.510;13.456;2023-08-06T02:50:19;62729.56;;;-146.93;100.00
21664;BME280;10993;52.510;13.456;2023-08-06T02:55:21;62254.94;;;-146.93;100.00
21664;BME280;10993;52.510;13.456;2023-08-06T03:00:21;61711.47;;;-146.93;100.00
21664;BME280;10993;52.510;13.456;2023-08-06T03:05:21;61973.06;;;-146.93;100.00
21664;BME280;10993;52.510;13.456;2023-08-06T03:10:23;64401.34;;;-146.93;100.00
21664;BME280;10993;52.510;13.456;2023-08-06T03:15:23;66100.34;;;-146.93;100.00
21664;BME280;10993;52.510;13.456;2023-08-06T03:20:25;68364.97;;;-146.93;100.00
21664;BME280;10993;52.510;13.456;2023-08-06T03:25:26;69009.09;;;-146.93;100.00
21664;BME280;10993;52.510;13.456;2023-08-06T03:30:27;69722.44;;;-146.93;100.00
21664;BME280;10993;52.510;13.456;2023-08-06T03:35:27;73130.66;;;-146.93;100.00
21664;BME280;10993;52.510;13.456;2023-08-06T03:40:29;73794.00;;;-146.93;100.00
21664;BME280;10993;52.510;13.456;2023-08-06T03:45:29;76741.88;;;-146.93;100.00
21664;BME280;10993;52.510;13.456;2023-08-06T03:50:29;78828.09;;;-146.93;100.00
21664;BME280;10993;52.510;13.456;2023-08-06T03:55:31;75381.63;;;-146.93;100.00
21664;BME280;10993;52.510;13.456;2023-08-06T04:00:31;74815.69;;;-146.93;100.00
21664;BME280;10993;52.510;13.456;2023-08-06T04:05:32;75438.63;;;-146.93;100.00
21664;BME280;10993;52.510;13.456;2023-08-06T04:10:34;74661.00;;;-146.93;100.00
21664;BME280;10993;52.510;13.456;2023-08-06T04:15:34;75424.38;;;-146.93;100.00
21664;BME280;10993;52.510;13.456;2023-08-06T04:20:35;74518.50;;;-146.93;100.00
21664;BME280;10993;52.510;13.456;2023-08-06T04:25:43;68060.22;;;-146.93;100.00
21664;BME280;10993;52.510;13.456;2023-08-06T04:30:43;68816.03;;;-146.93;100.00
21664;BME280;10993;52.510;13.456;2023-08-06T04:35:44;70076.13;;;-146.93;100.00
21664;BME280;10993;52.510;13.456;2023-08-06T04:40:46;66049.59;;;-146.93;100.00
21664;BME280;10993;52.510;13.456;2023-08-06T04:45:46;64953.38;;;-146.93;100.00
21664;BME280;10993;52.510;13.456;2023-08-06T04:50:48;65237.53;;;-146.93;100.00
21664;BME280;10993;52.510;13.456;2023-08-06T04:55:50;69635.03;;;-146.93;100.00
21664;BME280;10993;52.510;13.456;2023-08-06T05:00:50;68287.78;;;-146.93;100.00
21664;BME280;10993;52.510;13.456;2023-08-06T05:05:51;68950.16;;;-146.93;100.00
21664;BME280;10993;52.510;13.456;2023-08-06T05:10:52;68322.31;;;-146.93;100.00
21664;BME280;10993;52.510;13.456;2023-08-06T05:15:53;65946.03;;;-146.93;100.00
21664;BME280;10993;52.510;13.456;2023-08-06T05:20:53;64415.56;;;-146.93;100.00
21664;BME280;10993;52.510;13.456;2023-08-06T05:25:55;63171.78;;;-146.93;100.00
21664;BME280;10993;52.510;13.456;2023-08-06T05:30:55;62628.13;;;-146.93;100.00
21664;BME280;10993;52.510;13.456;2023-08-06T05:35:56;61399.22;;;-146.93;100.00
21664;BME280;10993;52.510;13.456;2023-08-06T05:40:57;60630.84;;;-146.93;100.00
21664;BME280;10993;52.510;13.456;2023-08-06T05:45:58;59712.69;;;-146.93;100.00
21664;BME280;10993;52.510;13.456;2023-08-06T05:50:58;59518.13;;;-146.93;100.00
21664;BME280;10993;52.510;13.456;2023-08-06T05:56:00;59347.91;;;-146.93;100.00
21664;BME280;10993;52.510;13.456;2023-08-06T06:01:00;59052.06;;;-146.93;100.00
21664;BME280;10993;52.510;13.456;2023-08-06T06:06:01;58035.09;;;-146.93;99.60
21664;BME280;10993;52.510;13.456;2023-08-06T06:11:03;58551.66;;;-146.93;100.00
21664;BME280;10993;52.510;13.456;2023-08-06T06:16:03;58618.50;;;-146.93;100.00
21664;BME280;10993;52.510;13.456;2023-08-06T06:21:05;58582.03;;;-146.93;100.00
21664;BME280;10993;52.510;13.456;2023-08-06T06:26:07;58557.72;;;-146.93;100.00
21664;BME280;10993;52.510;13.456;2023-08-06T06:31:07;58332.88;;;-146.93;100.00
21664;BME280;10993;52.510;13.456;2023-08-06T06:36:07;58626.59;;;-146.93;100.00
21664;BME280;10993;52.510;13.456;2023-08-06T06:41:09;58541.53;;;-146.93;100.00
21664;BME280;10993;52.510;13.456;2023-08-06T06:46:09;58525.31;;;-146.93;99.96
21664;BME280;10993;52.510;13.456;2023-08-06T06:51:10;58363.25;;;-146.93;100.00
21664;BME280;10993;52.510;13.456;2023-08-06T06:56:11;57943.94;;;-146.93;98.27
21664;BME280;10993;52.510;13.456;2023-08-06T07:01:12;58112.06;;;-146.93;99.19
21664;BME280;10993;52.510;13.456;2023-08-06T07:06:12;58468.59;;;-146.93;100.00
21664;BME280;10993;52.510;13.456;2023-08-06T07:11:14;57518.59;;;-146.93;97.14
21664;BME280;10993;52.510;13.456;2023-08-06T07:16:14;57790.00;;;-146.93;97.82
21664;BME280;10993;52.510;13.456;2023-08-06T07:21:14;57759.63;;;-146.93;97.30
21664;BME280;10993;52.510;13.456;2023-08-06T07:26:16;57619.88;;;-146.93;96.43
21664;BME280;10993;52.510;13.456;2023-08-06T07:31:17;57706.97;;;-146.93;97.30
21664;BME280;10993;52.510;13.456;2023-08-06T07:36:17;57927.72;;;-146.93;97.78
21664;BME280;10993;52.510;13.456;2023-08-06T07:41:19;57790.00;;;-146.93;98.41
21664;BME280;10993;52.510;13.456;2023-08-06T07:46:19;58184.97;;;-146.93;98.60
21664;BME280;10993;52.510;13.456;2023-08-06T07:51:20;57925.72;;;-146.93;97.64
21664;BME280;10993;52.510;13.456;2023-08-06T07:56:22;57816.34;;;-146.93;96.78
21664;BME280;10993;52.510;13.456;2023-08-06T08:01:22;57941.91;;;-146.93;97.53
21664;BME280;10993;52.510;13.456;2023-08-06T08:06:22;58079.66;;;-146.93;98.25
21664;BME280;10993;52.510;13.456;2023-08-06T08:11:25;58170.81;;;-146.93;98.52
21664;BME280;10993;52.510;13.456;2023-08-06T08:16:26;58136.38;;;-146.93;98.33
21664;BME280;10993;52.510;13.456;2023-08-06T08:21:27;58219.41;;;-146.93;99.21
21664;BME280;10993;52.510;13.456;2023-08-06T08:26:29;58582.03;;;-146.93;100.00
21664;BME280;10993;52.510;13.456;2023-08-06T08:31:29;58424.03;;;-146.93;99.64
21664;BME280;10993;52.510;13.456;2023-08-06T08:36:30;58533.41;;;-146.93;100.00
21664;BME280;10993;52.510;13.456;2023-08-06T08:41:33;58424.03;;;-146.93;98.49
21664;BME280;10993;52.510;13.456;2023-08-06T08:46:33;58312.59;;;-146.93;98.88
21664;BME280;10993;52.510;13.456;2023-08-06T08:51:35;57923.69;;;-146.93;96.08
21664;BME280;10993;52.510;13.456;2023-08-06T08:56:37;58029.00;;;-146.93;97.07
21664;BME280;10993;52.510;13.456;2023-08-06T09:01:39;57962.16;;;-146.93;95.98
21664;BME280;10993;52.510;13.456;2023-08-06T09:06:40;57945.97;;;-146.93;95.18
21664;BME280;10993;52.510;13.456;2023-08-06T09:11:43;57856.84;;;-146.93;94.31
21664;BME280;10993;52.510;13.456;2023-08-06T09:16:44;57761.66;;;-146.93;92.96
21664;BME280;10993;52.510;13.456;2023-08-06T09:21:45;57690.75;;;-146.93;91.65
21664;BME280;10993;52.510;13.456;2023-08-06T09:26:50;57709.00;;;-146.93;93.52
21664;BME280;10993;52.510;13.456;2023-08-06T09:31:51;57751.53;;;-146.93;93.92
21664;BME280;10993;52.510;13.456;2023-08-06T09:36:54;57824.44;;;-146.93;93.74
21664;BME280;10993;52.510;13.456;2023-08-06T09:41:57;57802.16;;;-146.93;94.27
21664;BME280;10993;52.510;13.456;2023-08-06T09:46:59;57812.28;;;-146.93;94.41
21664;BME280;10993;52.510;13.456;2023-08-06T09:52:00;57759.63;;;-146.93;94.17
21664;BME280;10993;52.510;13.456;2023-08-06T09:57:02;57666.44;;;-146.93;92.84
21664;BME280;10993;52.510;13.456;2023-08-06T10:02:04;58630.66;;;-146.93;91.70
21664;BME280;10993;52.510;13.456;2023-08-06T10:07:10;57682.66;;;-146.93;90.13
21664;BME280;10993;52.510;13.456;2023-08-06T10:12:12;57719.13;;;-146.93;90.26
21664;BME280;10993;52.510;13.456;2023-08-06T10:17:13;57617.84;;;-146.93;84.99
21664;BME280;10993;52.510;13.456;2023-08-06T10:22:14;57662.41;;;-146.93;85.63
21664;BME280;10993;52.510;13.456;2023-08-06T10:27:21;57636.06;;;-146.93;85.61
21664;BME280;10993;52.510;13.456;2023-08-06T10:32:49;57579.38;;;-146.93;83.02
21664;BME280;10993;52.510;13.456;2023-08-06T10:37:49;57575.31;;;-146.93;80.68
21664;BME280;10993;52.510;13.456;2023-08-06T10:42:50;57638.09;;;-146.93;81.39
21664;BME280;10993;52.510;13.456;2023-08-06T10:47:51;57642.16;;;-146.93;83.48
21664;BME280;10993;52.510;13.456;2023-08-06T10:52:52;57630.00;;;-146.93;84.37
21664;BME280;10993;52.510;13.456;2023-08-06T10:57:53;57921.66;;;-146.93;83.99
21664;BME280;10993;52.510;13.456;2023-08-06T11:02:55;57577.34;;;-146.93;82.56
21664;BME280;10993;52.510;13.456;2023-08-06T11:07:56;57595.56;;;-146.93;82.73
21664;BME280;10993;52.510;13.456;2023-08-06T11:13:00;57650.25;;;-146.93;81.90
21664;BME280;10993;52.510;13.456;2023-08-06T11:18:02;57668.47;;;-146.93;82.35
21664;BME280;10993;52.510;13.456;2023-08-06T11:23:02;57698.84;;;-146.93;83.22
21664;BME280;10993;52.510;13.456;2023-08-06T11:28:03;57715.06;;;-146.93;82.14
21664;BME280;10993;52.510;13.456;2023-08-06T11:33:06;57670.50;;;-146.93;82.32
21664;BME280;10993;52.510;13.456;2023-08-06T11:38:07;57702.91;;;-146.93;84.14
21664;BME280;10993;52.510;13.456;2023-08-06T11:43:09;57765.69;;;-146.93;83.66
21664;BME280;10993;52.510;13.456;2023-08-06T11:48:11;57702.91;;;-146.93;83.00
21664;BME280;10993;52.510;13.456;2023-08-06T11:53:12;57688.72;;;-146.93;83.42
21664;BME280;10993;52.510;13.456;2023-08-06T11:58:16;57698.84;;;-146.93;83.35
21664;BME280;10993;52.510;13.456;2023-08-06T12:03:19;57731.25;;;-146.93;83.76
21664;BME280;10993;52.510;13.456;2023-08-06T12:08:20;57753.53;;;-146.93;83.16
21664;BME280;10993;52.510;13.456;2023-08-06T12:13:20;57767.72;;;-146.93;82.83
21664;BME280;10993;52.510;13.456;2023-08-06T12:18:22;57719.13;;;-146.93;84.47
21664;BME280;10993;52.510;13.456;2023-08-06T12:23:23;57873.03;;;-146.93;83.97
21664;BME280;10993;52.510;13.456;2023-08-06T12:28:23;57757.59;;;-146.93;83.63
21664;BME280;10993;52.510;13.456;2023-08-06T12:33:25;57747.47;;;-146.93;84.09
21664;BME280;10993;52.510;13.456;2023-08-06T12:38:25;57686.72;;;-146.93;84.67
21664;BME280;10993;52.510;13.456;2023-08-06T12:43:25;57682.66;;;-146.93;83.30
21664;BME280;10993;52.510;13.456;2023-08-06T12:48:27;57723.16;;;-146.93;82.93
21664;BME280;10993;52.510;13.456;2023-08-06T12:53:27;57747.47;;;-146.93;82.37
21664;BME280;10993;52.510;13.456;2023-08-06T12:58:28;57771.78;;;-146.93;83.09
21664;BME280;10993;52.510;13.456;2023-08-06T13:03:29;57771.78;;;-146.93;85.02
21664;BME280;10993;52.510;13.456;2023-08-06T13:08:30;57682.66;;;-146.93;86.74
21664;BME280;10993;52.510;13.456;2023-08-06T13:13:30;57696.84;;;-146.93;87.38
21664;BME280;10993;52.510;13.456;2023-08-06T13:18:32;57709.00;;;-146.93;87.44
21664;BME280;10993;52.510;13.456;2023-08-06T13:23:32;57652.28;;;-146.93;86.38
21664;BME280;10993;52.510;13.456;2023-08-06T13:28:33;57619.88;;;-146.93;85.99
21664;BME280;10993;52.510;13.456;2023-08-06T13:33:34;57601.66;;;-146.93;85.72
21664;BME280;10993;52.510;13.456;2023-08-06T13:38:35;57654.31;;;-146.93;88.08
21664;BME280;10993;52.510;13.456;2023-08-06T13:43:36;57648.22;;;-146.93;87.92
21664;BME280;10993;52.510;13.456;2023-08-06T13:48:37;57619.88;;;-146.93;88.83
21664;BME280;10993;52.510;13.456;2023-08-06T13:53:38;57783.94;;;-146.93;87.55
21664;BME280;10993;52.510;13.456;2023-08-06T13:58:39;57694.81;;;-146.93;88.48
21664;BME280;10993;52.510;13.456;2023-08-06T14:03:40;57488.22;;;-146.93;87.72
21664;BME280;10993;52.510;13.456;2023-08-06T14:08:41;57542.91;;;-146.93;88.08
21664;BME280;10993;52.510;13.456;2023-08-06T14:13:41;57553.03;;;-146.93;87.63
21664;BME280;10993;52.510;13.456;2023-08-06T14:18:43;57461.91;;;-146.93;87.13
21664;BME280;10993;52.510;13.456;2023-08-06T14:23:43;57435.56;;;-146.93;89.01
21664;BME280;10993;52.510;13.456;2023-08-06T14:28:43;57486.19;;;-146.93;89.23
21664;BME280;10993;52.510;13.456;2023-08-06T14:33:45;57478.09;;;-146.93;89.83
21664;BME280;10993;52.510;13.456;2023-08-06T14:38:45;57393.03;;;-146.93;91.59
21664;BME280;10993;52.510;13.456;2023-08-06T14:43:46;57573.28;;;-146.93;93.31
21664;BME280;10993;52.510;13.456;2023-08-06T14:48:47;57510.50;;;-146.93;92.41
21664;BME280;10993;52.510;13.456;2023-08-06T14:53:48;57530.75;;;-146.93;93.78
21664;BME280;10993;52.510;13.456;2023-08-06T14:58:48;57504.44;;;-146.93;95.70
21664;BME280;10993;52.510;13.456;2023-08-06T15:03:50;57830.50;;;-146.93;95.92
21664;BME280;10993;52.510;13.456;2023-08-06T15:08:50;57640.13;;;-146.93;94.30
21664;BME280;10993;52.510;13.456;2023-08-06T15:13:51;57650.25;;;-146.93;95.33
21664;BME280;10993;52.510;13.456;2023-08-06T15:18:52;57783.94;;;-146.93;95.89
21664;BME280;10993;52.510;13.456;2023-08-06T15:23:53;57581.38;;;-146.93;95.30
21664;BME280;10993;52.510;13.456;2023-08-06T15:28:53;57662.41;;;-146.93;94.08
21664;BME280;10993;52.510;13.456;2023-08-06T15:33:55;57528.72;;;-146.93;93.46
21664;BME280;10993;52.510;13.456;2023-08-06T15:38:55;57536.84;;;-146.93;93.26
21664;BME280;10993;52.510;13.456;2023-08-06T15:43:55;57613.78;;;-146.93;94.48
21664;BME280;10993;52.510;13.456;2023-08-06T15:48:57;57759.63;;;-146.93;95.89
21664;BME280;10993;52.510;13.456;2023-08-06T15:53:57;57775.81;;;-146.93;95.77
21664;BME280;10993;52.510;13.456;2023-08-06T15:58:58;57678.59;;;-146.93;94.27
21664;BME280;10993;52.510;13.456;2023-08-06T16:03:59;57696.84;;;-146.93;95.22
21664;BME280;10993;52.510;13.456;2023-08-06T16:09:00;57808.22;;;-146.93;95.77
21664;BME280;10993;52.510;13.456;2023-08-06T16:14:00;57698.84;;;-146.93;94.50
21664;BME280;10993;52.510;13.456;2023-08-06T16:19:02;57625.94;;;-146.93;94.58
21664;BME280;10993;52.510;13.456;2023-08-06T16:24:03;57686.72;;;-146.93;95.21
21664;BME280;10993;52.510;13.456;2023-08-06T16:29:04;57711.00;;;-146.93;95.31
21664;BME280;10993;52.510;13.456;2023-08-06T16:34:06;57765.69;;;-146.93;96.06
21664;BME280;10993;52.510;13.456;2023-08-06T16:39:07;57642.16;;;-146.93;95.19
21664;BME280;10993;52.510;13.456;2023-08-06T16:44:07;57625.94;;;-146.93;95.11
21664;BME280;10993;52.510;13.456;2023-08-06T16:49:13;57601.66;;;-146.93;94.67
21664;BME280;10993;52.510;13.456;2023-08-06T16:54:13;57579.38;;;-146.93;94.50
21664;BME280;10993;52.510;13.456;2023-08-06T16:59:14;57435.56;;;-146.93;92.81
21664;BME280;10993;52.510;13.456;2023-08-06T17:04:15;57243.19;;;-146.93;87.29
21664;BME280;10993;52.510;13.456;2023-08-06T17:09:16;57245.22;;;-146.93;88.03
21664;BME280;10993;52.510;13.456;2023-08-06T17:14:16;57241.16;;;-146.93;88.78
21664;BME280;10993;52.510;13.456;2023-08-06T17:19:18;57188.50;;;-146.93;88.78
21664;BME280;10993;52.510;13.456;2023-08-06T17:24:18;57229.00;;;-146.93;88.13
21664;BME280;10993;52.510;13.456;2023-08-06T17:29:19;57216.84;;;-146.93;87.81
21664;BME280;10993;52.510;13.456;2023-08-06T17:34:21;57261.41;;;-146.93;89.12
21664;BME280;10993;52.510;13.456;2023-08-06T17:39:21;57229.00;;;-146.93;88.62
21664;BME280;10993;52.510;13.456;2023-08-06T17:44:21;57257.34;;;-146.93;89.79
21664;BME280;10993;52.510;13.456;2023-08-06T17:49:23;57287.72;;;-146.93;91.02
21664;BME280;10993;52.510;13.456;2023-08-06T17:54:24;57224.97;;;-146.93;90.22
21664;BME280;10993;52.510;13.456;2023-08-06T17:59:24;57243.19;;;-146.93;89.59
21664;BME280;10993;52.510;13.456;2023-08-06T18:04:26;57188.50;;;-146.93;88.70
21664;BME280;10993;52.510;13.456;2023-08-06T18:09:27;57255.34;;;-146.93;89.05
21664;BME280;10993;52.510;13.456;2023-08-06T18:14:28;57237.09;;;-146.93;88.13
21664;BME280;10993;52.510;13.456;2023-08-06T18:19:30;57178.38;;;-146.93;88.74
21664;BME280;10993;52.510;13.456;2023-08-06T18:24:30;57200.66;;;-146.93;89.01
21664;BME280;10993;52.510;13.456;2023-08-06T18:29:31;57190.53;;;-146.93;89.16
21664;BME280;10993;52.510;13.456;2023-08-06T18:34:33;57162.19;;;-146.93;88.29
21664;BME280;10993;52.510;13.456;2023-08-06T18:39:34;57133.81;;;-146.93;89.51
21664;BME280;10993;52.510;13.456;2023-08-06T18:44:34;57087.25;;;-146.93;88.67
21664;BME280;10993;52.510;13.456;2023-08-06T18:49:36;57192.56;;;-146.93;89.01
21664;BME280;10993;52.510;13.456;2023-08-06T18:54:37;57176.34;;;-146.93;90.31
21664;BME280;10993;52.510;13.456;2023-08-06T18:59:37;57131.81;;;-146.93;90.45
21664;BME280;10993;52.510;13.456;2023-08-06T19:04:39;57214.84;;;-146.93;90.89
21664;BME280;10993;52.510;13.456;2023-08-06T19:09:39;57237.09;;;-146.93;90.82
21664;BME280;10993;52.510;13.456;2023-08-06T19:14:42;57251.28;;;-146.93;90.03
21664;BME280;10993;52.510;13.456;2023-08-06T19:19:44;57265.47;;;-146.93;89.26
21664;BME280;10993;52.510;13.456;2023-08-06T19:24:44;57214.84;;;-146.93;89.85
21664;BME280;10993;52.510;13.456;2023-08-06T19:29:45;57229.00;;;-146.93;90.46
21664;BME280;10993;52.510;13.456;2023-08-06T19:34:46;57137.88;;;-146.93;90.49
21664;BME280;10993;52.510;13.456;2023-08-06T19:39:47;57178.38;;;-146.93;90.59
21664;BME280;10993;52.510;13.456;2023-08-06T19:44:47;57158.13;;;-146.93;91.34
21664;BME280;10993;52.510;13.456;2023-08-06T19:49:49;57237.09;;;-146.93;91.94
21664;BME280;10993;52.510;13.456;2023-08-06T19:54:49;57310.00;;;-146.93;91.69
21664;BME280;10993;52.510;13.456;2023-08-06T19:59:50;57257.34;;;-146.93;91.26
21664;BME280;10993;52.510;13.456;2023-08-06T20:04:51;57224.97;;;-146.93;92.08
21664;BME280;10993;52.510;13.456;2023-08-06T20:09:52;57253.31;;;-146.93;92.09
21664;BME280;10993;52.510;13.456;2023-08-06T20:14:52;57265.47;;;-146.93;92.63
21664;BME280;10993;52.510;13.456;2023-08-06T20:19:54;57190.53;;;-146.93;92.55
21664;BME280;10993;52.510;13.456;2023-08-06T20:24:54;57245.22;;;-146.93;91.65
21664;BME280;10993;52.510;13.456;2023-08-06T20:29:54;57208.75;;;-146.93;91.29
21664;BME280;10993;52.510;13.456;2023-08-06T20:34:56;57075.09;;;-146.93;89.85
21664;BME280;10993;52.510;13.456;2023-08-06T20:39:56;57154.06;;;-146.93;90.53
21664;BME280;10993;52.510;13.456;2023-08-06T20:44:57;57216.84;;;-146.93;91.51
21664;BME280;10993;52.510;13.456;2023-08-06T20:49:58;57168.25;;;-146.93;90.60
21664;BME280;10993;52.510;13.456;2023-08-06T20:54:59;57196.59;;;-146.93;90.94
21664;BME280;10993;52.510;13.456;2023-08-06T20:59:59;57212.81;;;-146.93;91.72
21664;BME280;10993;52.510;13.456;2023-08-06T21:05:01;57220.91;;;-146.93;91.92
21664;BME280;10993;52.510;13.456;2023-08-06T21:10:01;57200.66;;;-146.93;92.23
21664;BME280;10993;52.510;13.456;2023-08-06T21:15:02;57204.69;;;-146.93;91.79
21664;BME280;10993;52.510;13.456;2023-08-06T21:20:05;57152.06;;;-146.93;90.72
21664;BME280;10993;52.510;13.456;2023-08-06T21:25:06;57148.00;;;-146.93;90.34
21664;BME280;10993;52.510;13.456;2023-08-06T21:30:07;57113.56;;;-146.93;90.12
21664;BME280;10993;52.510;13.456;2023-08-06T21:35:13;57105.47;;;-146.93;90.12
21664;BME280;10993;52.510;13.456;2023-08-06T21:40:15;57111.56;;;-146.93;88.98
21664;BME280;10993;52.510;13.456;2023-08-06T21:45:15;57099.41;;;-146.93;88.37
21664;BME280;10993;52.510;13.456;2023-08-06T21:50:17;57050.81;;;-146.93;87.82
21664;BME280;10993;52.510;13.456;2023-08-06T21:55:18;57030.56;;;-146.93;86.72
21664;BME280;10993;52.510;13.456;2023-08-06T22:00:18;56996.13;;;-146.93;85.20
21664;BME280;10993;52.510;13.456;2023-08-06T22:05:20;57012.31;;;-146.93;86.14
21664;BME280;10993;52.510;13.456;2023-08-06T22:10:20;56977.91;;;-146.93;85.69
21664;BME280;10993;52.510;13.456;2023-08-06T22:15:21;57012.31;;;-146.93;85.08
21664;BME280;10993;52.510;13.456;2023-08-06T22:20:22;56969.81;;;-146.93;85.62
21664;BME280;10993;52.510;13.456;2023-08-06T22:25:24;57030.56;;;-146.93;86.45
21664;BME280;10993;52.510;13.456;2023-08-06T22:30:24;56951.59;;;-146.93;86.84
21664;BME280;10993;52.510;13.456;2023-08-06T22:35:26;57036.63;;;-146.93;87.40
21664;BME280;10993;52.510;13.456;2023-08-06T22:40:26;57012.31;;;-146.93;88.41
21664;BME280;10993;52.510;13.456;2023-08-06T22:45:26;57022.44;;;-146.93;88.07
21664;BME280;10993;52.510;13.456;2023-08-06T22:50:28;57062.94;;;-146.93;88.28
21664;BME280;10993;52.510;13.456;2023-08-06T22:55:29;56965.75;;;-146.93;87.98
21664;BME280;10993;52.510;13.456;2023-08-06T23:00:29;57040.69;;;-146.93;87.65
21664;BME280;10993;52.510;13.456;2023-08-06T23:05:31;56951.59;;;-146.93;87.91
21664;BME280;10993;52.510;13.456;2023-08-06T23:10:31;57034.59;;;-146.93;87.62
21664;BME280;10993;52.510;13.456;2023-08-06T23:15:31;57048.78;;;-146.93;87.67
21664;BME280;10993;52.510;13.456;2023-08-06T23:20:33;56981.94;;;-146.93;87.64
21664;BME280;10993;52.510;13.456;2023-08-06T23:25:34;57022.44;;;-146.93;87.69
21664;BME280;10993;52.510;13.456;2023-08-06T23:30:35;57056.88;;;-146.93;87.73
21664;BME280;10993;52.510;13.456;2023-08-06T23:35:36;56977.91;;;-146.93;87.00
21664;BME280;10993;52.510;13.456;2023-08-06T23:40:37;56994.09;;;-146.93;86.38
21664;BME280;10993;52.510;13.456;2023-08-06T23:45:37;57028.53;;;-146.93;85.48
21664;BME280;10993;52.510;13.456;2023-08-06T23:50:39;57077.13;;;-146.93;85.58
21664;BME280;10993;52.510;13.456;2023-08-06T23:55:39;56959.69;;;-146.93;85.15
